Etusivu
METAR-TAF:

METAR-TAF

Lentoasemat :

Huippuvuorten lentoasema

Longyearbyen, Norja

Leveyspiiri: 78-15N, Pituuspiiri: 015-28E, korkeus merenpinnasta: 2 m

Tämänhetkinen sää

Tämä raportti tehtiin 43 minuuttia sitten, kello 09.20 UTC
Tuuli 9 kn idästä
Lämpötila 0°C
Kosteus 74%
Ilmanpaine 998 hPa
Näkyvyys: 5000 m
heikkoa lumisadetta

METAR: ENSB 140920Z 08009KT 5000 -SN VV016 M00/M04 Q0998 TEMPO 4000 -SN VV012 06020KT RMK WIND 1400FT 06011KT

Aika: 12:03 (10:03 UTC)

Sääennuste

Ennuste voimassa 14. päivästä klo 06 UTC - 15. päivään klo 06 UTC
Tuuli 12 kn koillisesta
Näkyvyys 10 km tai enemmän
Hajonneita pilviä 3500 ft:n korkeudessa
Ajoittain
14. päivästä klo 06 UTC - 14. päivään klo 24 UTC
Tuuli 22 kn koillisesta
Ajoittain
14. päivästä klo 08 UTC - 14. päivään klo 18 UTC
Näkyvyys: 2500 m
800 ft:n korkeudessa
lumisadetta

TAF: ENSB 1406/1506 05012KT 9999 BKN035 TEMPO 1406/1424 04022KT TEMPO 1408/1418 2500 SN VV008

Säähavainnot ja -ennusteet yli 4000 lentoasemalta (METAR- ja TAF-raportit).

Käytössä olevat sääasemat on merkitty karttaan keltaisilla ja punaisilla pisteillä.

Aseta hiiri pisteen päälle nähdäksesi sääaseman nimen.

Klikkaa sitten nähdäksesi säähavainnot ja -ennusteet.

Kartan vaihtaminen: klikkaa mustalla rastilla varustettuja vihreitä pisteitä, niin voit zoomata sisään; viivalla varustettua vihreää pistettä, niin voit zoomata ulos tai vihreitä nuolia, niin pääset viereisille kartoille.


METAR-TAF: